METAR AND TAF INFORMATION
METAR FOR GCTS
ADDS - METARS form results

(2140 UTC 28 September 2022)
Data provider http://aviationweather.gov/metar/data/
 
METAR text: GCTS 282130Z 07014KT 9999 FEW025 22/18 Q1020 NOSIG
Conditions at: GCTS (TENERIFE SUR/REI, ES) observed 2130 UTC 28 September 2022
Temperature: 22.0°C (72°F)
Dewpoint: 18.0°C (64°F) [RH = 78%]
Pressure (altimeter): 30.12 inches Hg (1020.0 mb)
Winds: from the ENE (70 degrees) at 16 MPH (14 knots; 7.2 m/s)
Visibility: 6 or more miles (10+ km)
Ceiling: at least 12,000 feet AGL
Clouds: few clouds at 2500 feet AGL
Weather: no significant weather observed at this time

METAR text: GCTS 282100Z 07016KT 9999 FEW025 22/18 Q1020 NOSIG
Conditions at: GCTS (TENERIFE SUR/REI, ES) observed 2100 UTC 28 September 2022
Temperature: 22.0°C (72°F)
Dewpoint: 18.0°C (64°F) [RH = 78%]
Pressure (altimeter): 30.12 inches Hg (1020.0 mb)
Winds: from the ENE (70 degrees) at 18 MPH (16 knots; 8.2 m/s)
Visibility: 6 or more miles (10+ km)
Ceiling: at least 12,000 feet AGL
Clouds: few clouds at 2500 feet AGL
Weather: no significant weather observed at this time

Forecast for: GCTS (TENERIFE SUR/REI, ES)
Text: TAF GCTS 282000Z 2821/2921 06015KT 9999 FEW025 TX26/2914Z TN20/2906Z
Forecast period: 2100 UTC 28 September 2022 to 2100 UTC 29 September 2022
Forecast type: FROM: standard forecast or significant change
Winds: from the ENE (60 degrees) at 17 MPH (15 knots; 7.7 m/s)
Visibility: 6 or more miles (10+ km)
Ceiling: at least 12,000 feet AGL
Clouds: few clouds at 2500 feet AGL
Weather: no significant weather forecast for this period

 AIRPORT MAP

 RUNWAY INFORMATION
Runway 08 Runway length 10499 ft Runway width 148 ft
Runway elevation 187 ft Runway displaced threshold 0 ft Runway heading 69
Runway 26 Runway length 10499 ft Runway width 148 ft
Runway elevation 209 ft Runway displaced threshold 0 ft Runway heading 249

 AIRPORT FREQUENCIES
Type APP Name APP Frequency 120.3 MHZ
Type ATIS Name ATIS Frequency 118.675 MHZ
Type GND Name GND Frequency 121.9 MHZ
Type TWR Name TWR Frequency 119 MHZ

 AIRPORT NEAR NAVIGATION AIDS
Type NDB Name Tenerife Sur Frequency 317 KHZ
Type VOR-DME Name Tenerife Sur Frequency 116400 KHZ


   

  admin@vaerocargo.online

counter free counter free

Flag Counter
© 2020 VAeroCargo : All Rights Reserved

VAeroCargo is an online virtual simulation site for Flight Simulation purposes only, and does not represent any of the real world airlines, Inc. in any capacity.
No resemblance to real-world navigation


BIG THANKS to VAM and its suite of system on basis of which this entire VA system has been built on
Thanks to the original developer of Virtual Airline Manager(VAM) - Mr. Alejandro Garcia